sensor_id;sensor_type;location;lat;lon;timestamp;pressure;altitude;pressure_sealevel;temperature;humidity
82418;BME280;75985;53.734;10.260;2024-02-23T00:02:57;97354.16;;;6.39;85.30
82418;BME280;75985;53.734;10.260;2024-02-23T00:06:01;97358.06;;;6.30;84.76
82418;BME280;75985;53.734;10.260;2024-02-23T00:09:06;97357.24;;;6.17;81.32
82418;BME280;75985;53.734;10.260;2024-02-23T00:12:10;97358.83;;;6.54;78.68
82418;BME280;75985;53.734;10.260;2024-02-23T00:15:15;97369.27;;;7.06;74.55
82418;BME280;75985;53.734;10.260;2024-02-23T00:18:19;97373.77;;;7.38;72.51
82418;BME280;75985;53.734;10.260;2024-02-23T00:21:24;97367.70;;;7.49;72.17
82418;BME280;75985;53.734;10.260;2024-02-23T00:24:28;97371.52;;;7.52;72.08
82418;BME280;75985;53.734;10.260;2024-02-23T00:27:33;97380.02;;;7.60;71.90
82418;BME280;75985;53.734;10.260;2024-02-23T00:30:38;97380.34;;;7.75;72.93
82418;BME280;75985;53.734;10.260;2024-02-23T00:33:42;97391.45;;;7.79;72.44
82418;BME280;75985;53.734;10.260;2024-02-23T00:36:47;97404.02;;;7.68;74.04
82418;BME280;75985;53.734;10.260;2024-02-23T00:39:52;97402.34;;;7.63;74.58
82418;BME280;75985;53.734;10.260;2024-02-23T00:42:56;97382.16;;;7.62;72.71
82418;BME280;75985;53.734;10.260;2024-02-23T00:46:02;97392.05;;;7.63;73.88
82418;BME280;75985;53.734;10.260;2024-02-23T00:49:07;97393.71;;;7.68;73.14
82418;BME280;75985;53.734;10.260;2024-02-23T00:52:12;97379.05;;;7.75;71.93
82418;BME280;75985;53.734;10.260;2024-02-23T00:55:16;97390.17;;;7.79;71.77
82418;BME280;75985;53.734;10.260;2024-02-23T00:58:21;97413.33;;;7.82;69.90
82418;BME280;75985;53.734;10.260;2024-02-23T01:01:26;97447.18;;;7.89;70.02
82418;BME280;75985;53.734;10.260;2024-02-23T01:04:31;97492.34;;;7.78;73.74
82418;BME280;75985;53.734;10.260;2024-02-23T01:07:36;97497.79;;;7.25;77.79
82418;BME280;75985;53.734;10.260;2024-02-23T01:10:40;97533.10;;;6.87;79.84
82418;BME280;75985;53.734;10.260;2024-02-23T01:13:45;97522.89;;;6.50;81.45
82418;BME280;75985;53.734;10.260;2024-02-23T01:16:49;97528.06;;;6.23;82.05
82418;BME280;75985;53.734;10.260;2024-02-23T01:19:54;97560.15;;;6.12;82.10
82418;BME280;75985;53.734;10.260;2024-02-23T01:22:58;97556.69;;;6.02;82.25
82418;BME280;75985;53.734;10.260;2024-02-23T01:26:03;97572.53;;;5.99;82.57
82418;BME280;75985;53.734;10.260;2024-02-23T01:29:07;97573.38;;;5.95;82.87
82418;BME280;75985;53.734;10.260;2024-02-23T01:32:12;97598.20;;;5.89;83.10
82418;BME280;75985;53.734;10.260;2024-02-23T01:35:16;97594.75;;;5.84;83.46
82418;BME280;75985;53.734;10.260;2024-02-23T01:38:21;97590.03;;;5.77;82.70
82418;BME280;75985;53.734;10.260;2024-02-23T01:41:27;97604.12;;;5.63;83.03
82418;BME280;75985;53.734;10.260;2024-02-23T01:44:31;97606.63;;;5.54;83.12
82418;BME280;75985;53.734;10.260;2024-02-23T01:47:36;97632.30;;;5.49;83.51
82418;BME280;75985;53.734;10.260;2024-02-23T01:50:42;97643.41;;;5.45;82.69
82418;BME280;75985;53.734;10.260;2024-02-23T01:53:47;97651.11;;;5.47;82.81
82418;BME280;75985;53.734;10.260;2024-02-23T01:56:52;97648.09;;;5.46;83.22
82418;BME280;75985;53.734;10.260;2024-02-23T01:59:57;97651.52;;;5.45;83.19
82418;BME280;75985;53.734;10.260;2024-02-23T02:03:02;97675.02;;;5.44;83.24
82418;BME280;75985;53.734;10.260;2024-02-23T02:06:07;97699.00;;;5.48;81.35
82418;BME280;75985;53.734;10.260;2024-02-23T02:09:12;97705.84;;;5.49;82.37
82418;BME280;75985;53.734;10.260;2024-02-23T02:12:27;97717.84;;;5.53;81.93
82418;BME280;75985;53.734;10.260;2024-02-23T02:15:32;97728.52;;;5.54;82.24
82418;BME280;75985;53.734;10.260;2024-02-23T02:18:36;97750.34;;;5.54;82.51
82418;BME280;75985;53.734;10.260;2024-02-23T02:21:42;97755.93;;;5.55;80.19
82418;BME280;75985;53.734;10.260;2024-02-23T02:24:46;97756.75;;;5.54;78.51
82418;BME280;75985;53.734;10.260;2024-02-23T02:27:51;97781.14;;;5.51;78.71
82418;BME280;75985;53.734;10.260;2024-02-23T02:30:56;97809.35;;;5.49;78.20
82418;BME280;75985;53.734;10.260;2024-02-23T02:34:00;97818.31;;;5.48;78.34
82418;BME280;75985;53.734;10.260;2024-02-23T02:37:05;97811.83;;;5.40;79.58
82418;BME280;75985;53.734;10.260;2024-02-23T02:40:09;97827.17;;;5.31;79.00
82418;BME280;75985;53.734;10.260;2024-02-23T02:43:14;97821.16;;;5.27;78.87
82418;BME280;75985;53.734;10.260;2024-02-23T02:46:19;97844.20;;;5.22;79.10
82418;BME280;75985;53.734;10.260;2024-02-23T02:49:23;97859.95;;;5.14;80.63
82418;BME280;75985;53.734;10.260;2024-02-23T02:52:28;97871.34;;;4.98;81.64
82418;BME280;75985;53.734;10.260;2024-02-23T02:55:32;97891.72;;;4.87;82.63
82418;BME280;75985;53.734;10.260;2024-02-23T02:58:37;97880.95;;;4.80;83.55
82418;BME280;75985;53.734;10.260;2024-02-23T03:01:41;97896.28;;;4.74;83.21
82418;BME280;75985;53.734;10.260;2024-02-23T03:04:49;97907.77;;;4.71;82.98
82418;BME280;75985;53.734;10.260;2024-02-23T03:07:54;97908.67;;;4.73;82.32
82418;BME280;75985;53.734;10.260;2024-02-23T03:10:59;97924.85;;;4.69;82.38
82418;BME280;75985;53.734;10.260;2024-02-23T03:14:03;97932.91;;;4.65;82.04
82418;BME280;75985;53.734;10.260;2024-02-23T03:17:08;97946.09;;;4.60;82.55
82418;BME280;75985;53.734;10.260;2024-02-23T03:20:16;97953.23;;;4.51;82.99
82418;BME280;75985;53.734;10.260;2024-02-23T03:23:20;97953.66;;;4.52;82.38
82418;BME280;75985;53.734;10.260;2024-02-23T03:26:25;97958.36;;;4.51;82.30
82418;BME280;75985;53.734;10.260;2024-02-23T03:29:29;97971.19;;;4.53;82.01
82418;BME280;75985;53.734;10.260;2024-02-23T03:32:34;97978.45;;;4.52;82.05
82418;BME280;75985;53.734;10.260;2024-02-23T03:35:42;97984.85;;;4.52;82.08
82418;BME280;75985;53.734;10.260;2024-02-23T03:38:47;97987.89;;;4.56;81.26
82418;BME280;75985;53.734;10.260;2024-02-23T03:41:52;97982.75;;;4.54;81.91
82418;BME280;75985;53.734;10.260;2024-02-23T03:44:56;98005.75;;;4.51;82.17
82418;BME280;75985;53.734;10.260;2024-02-23T03:48:03;98008.70;;;4.49;82.30
82418;BME280;75985;53.734;10.260;2024-02-23T03:51:09;98015.95;;;4.48;82.48
82418;BME280;75985;53.734;10.260;2024-02-23T03:54:13;98033.48;;;4.48;82.61
82418;BME280;75985;53.734;10.260;2024-02-23T03:57:18;98031.35;;;4.49;82.07
82418;BME280;75985;53.734;10.260;2024-02-23T04:00:22;98033.09;;;4.52;81.56
82418;BME280;75985;53.734;10.260;2024-02-23T04:03:27;98044.11;;;4.46;81.05
82418;BME280;75985;53.734;10.260;2024-02-23T04:06:33;98055.89;;;4.35;81.19
82418;BME280;75985;53.734;10.260;2024-02-23T04:09:37;98059.19;;;4.28;80.94
82418;BME280;75985;53.734;10.260;2024-02-23T04:12:42;98076.95;;;4.17;81.23
82418;BME280;75985;53.734;10.260;2024-02-23T04:15:47;98084.14;;;4.13;81.46
82418;BME280;75985;53.734;10.260;2024-02-23T04:18:53;98080.71;;;4.10;81.69
82418;BME280;75985;53.734;10.260;2024-02-23T04:21:58;98093.92;;;4.10;82.09
82418;BME280;75985;53.734;10.260;2024-02-23T04:25:02;98096.86;;;4.08;81.42
82418;BME280;75985;53.734;10.260;2024-02-23T04:28:08;98108.73;;;4.03;81.33
82418;BME280;75985;53.734;10.260;2024-02-23T04:31:12;98093.72;;;3.97;80.92
82418;BME280;75985;53.734;10.260;2024-02-23T04:34:17;98120.88;;;3.91;81.72
82418;BME280;75985;53.734;10.260;2024-02-23T04:37:21;98134.08;;;3.89;81.63
82418;BME280;75985;53.734;10.260;2024-02-23T04:40:26;98134.58;;;3.93;81.69
82418;BME280;75985;53.734;10.260;2024-02-23T04:43:31;98144.95;;;3.99;81.33
82418;BME280;75985;53.734;10.260;2024-02-23T04:46:35;98138.64;;;4.05;80.99
82418;BME280;75985;53.734;10.260;2024-02-23T04:49:40;98130.61;;;4.09;80.82
82418;BME280;75985;53.734;10.260;2024-02-23T04:52:44;98133.17;;;4.09;81.03
82418;BME280;75985;53.734;10.260;2024-02-23T04:55:48;98147.28;;;4.12;81.07
82418;BME280;75985;53.734;10.260;2024-02-23T04:58:53;98139.95;;;4.07;81.05
82418;BME280;75985;53.734;10.260;2024-02-23T05:01:58;98139.45;;;4.03;80.70
82418;BME280;75985;53.734;10.260;2024-02-23T05:05:03;98144.45;;;3.96;81.00
82418;BME280;75985;53.734;10.260;2024-02-23T05:08:08;98147.38;;;3.93;81.11
82418;BME280;75985;53.734;10.260;2024-02-23T05:11:14;98154.16;;;3.89;81.30
82418;BME280;75985;53.734;10.260;2024-02-23T05:14:19;98169.01;;;3.85;81.63
82418;BME280;75985;53.734;10.260;2024-02-23T05:17:24;98175.00;;;3.87;81.62
82418;BME280;75985;53.734;10.260;2024-02-23T05:20:28;98175.04;;;3.89;81.87
82418;BME280;75985;53.734;10.260;2024-02-23T05:23:33;98186.34;;;4.00;81.73
82418;BME280;75985;53.734;10.260;2024-02-23T05:26:37;98196.34;;;4.10;81.42
82418;BME280;75985;53.734;10.260;2024-02-23T05:29:42;98183.98;;;4.11;80.74
82418;BME280;75985;53.734;10.260;2024-02-23T05:32:47;98208.20;;;4.06;81.25
82418;BME280;75985;53.734;10.260;2024-02-23T05:35:51;98222.63;;;4.01;80.88
82418;BME280;75985;53.734;10.260;2024-02-23T05:38:56;98213.53;;;3.93;81.24
82418;BME280;75985;53.734;10.260;2024-02-23T05:42:01;98228.16;;;3.99;81.08
82418;BME280;75985;53.734;10.260;2024-02-23T05:45:07;98227.41;;;4.06;80.82
82418;BME280;75985;53.734;10.260;2024-02-23T05:48:14;98224.55;;;4.11;80.80
82418;BME280;75985;53.734;10.260;2024-02-23T05:51:19;98235.09;;;4.05;80.89
82418;BME280;75985;53.734;10.260;2024-02-23T05:54:23;98237.05;;;3.96;80.65
82418;BME280;75985;53.734;10.260;2024-02-23T05:57:28;98251.73;;;3.84;81.01
82418;BME280;75985;53.734;10.260;2024-02-23T06:00:32;98250.78;;;3.79;81.03
82418;BME280;75985;53.734;10.260;2024-02-23T06:03:37;98258.02;;;3.78;81.41
82418;BME280;75985;53.734;10.260;2024-02-23T06:06:42;98267.01;;;3.79;81.21
82418;BME280;75985;53.734;10.260;2024-02-23T06:09:46;98279.00;;;3.82;80.86
82418;BME280;75985;53.734;10.260;2024-02-23T06:12:51;98289.61;;;3.80;80.41
82418;BME280;75985;53.734;10.260;2024-02-23T06:15:55;98285.44;;;3.83;79.99
82418;BME280;75985;53.734;10.260;2024-02-23T06:19:00;98295.13;;;3.78;80.35
82418;BME280;75985;53.734;10.260;2024-02-23T06:22:06;98296.48;;;3.82;80.10
82418;BME280;75985;53.734;10.260;2024-02-23T06:25:12;98303.39;;;3.86;79.46
82418;BME280;75985;53.734;10.260;2024-02-23T06:28:17;98318.06;;;3.94;79.23
82418;BME280;75985;53.734;10.260;2024-02-23T06:31:21;98321.13;;;3.98;78.82
82418;BME280;75985;53.734;10.260;2024-02-23T06:34:26;98332.28;;;4.00;78.99
82418;BME280;75985;53.734;10.260;2024-02-23T06:37:30;98354.92;;;4.01;78.88
82418;BME280;75985;53.734;10.260;2024-02-23T06:40:35;98354.92;;;4.01;79.14
82418;BME280;75985;53.734;10.260;2024-02-23T06:43:39;98359.61;;;4.01;78.61
82418;BME280;75985;53.734;10.260;2024-02-23T06:46:44;98380.13;;;4.03;78.57
82418;BME280;75985;53.734;10.260;2024-02-23T06:49:48;98378.63;;;4.13;77.70
82418;BME280;75985;53.734;10.260;2024-02-23T06:52:53;98399.48;;;4.09;78.11
82418;BME280;75985;53.734;10.260;2024-02-23T06:55:57;98405.88;;;4.09;78.40
82418;BME280;75985;53.734;10.260;2024-02-23T06:59:03;98412.61;;;4.05;78.11
82418;BME280;75985;53.734;10.260;2024-02-23T07:02:07;98412.25;;;4.07;77.55
82418;BME280;75985;53.734;10.260;2024-02-23T07:05:12;98412.65;;;4.07;77.76
82418;BME280;75985;53.734;10.260;2024-02-23T07:08:18;98405.59;;;4.16;77.16
82418;BME280;75985;53.734;10.260;2024-02-23T07:11:22;98426.59;;;4.20;77.56
82418;BME280;75985;53.734;10.260;2024-02-23T07:14:27;98433.88;;;4.20;77.69
82418;BME280;75985;53.734;10.260;2024-02-23T07:17:32;98445.08;;;4.26;77.28
82418;BME280;75985;53.734;10.260;2024-02-23T07:20:36;98443.11;;;4.33;77.26
82418;BME280;75985;53.734;10.260;2024-02-23T07:23:41;98450.91;;;4.37;77.16
82418;BME280;75985;53.734;10.260;2024-02-23T07:26:45;98460.79;;;4.41;77.29
82418;BME280;75985;53.734;10.260;2024-02-23T07:29:50;98469.47;;;4.48;77.17
82418;BME280;75985;53.734;10.260;2024-02-23T07:32:54;98462.40;;;4.57;77.43
82418;BME280;75985;53.734;10.260;2024-02-23T07:35:59;98465.47;;;4.61;76.83
82418;BME280;75985;53.734;10.260;2024-02-23T07:39:03;98470.27;;;4.66;76.90
82418;BME280;75985;53.734;10.260;2024-02-23T07:42:08;98470.81;;;4.72;76.70
82418;BME280;75985;53.734;10.260;2024-02-23T07:45:14;98492.30;;;4.77;75.97
82418;BME280;75985;53.734;10.260;2024-02-23T07:48:18;98480.95;;;4.86;75.36
82418;BME280;75985;53.734;10.260;2024-02-23T07:51:22;98491.09;;;4.82;75.47
82418;BME280;75985;53.734;10.260;2024-02-23T07:54:27;98495.53;;;4.68;76.13
82418;BME280;75985;53.734;10.260;2024-02-23T07:57:32;98497.95;;;4.62;76.82
82418;BME280;75985;53.734;10.260;2024-02-23T08:00:37;98495.20;;;4.53;76.79
82418;BME280;75985;53.734;10.260;2024-02-23T08:03:42;98504.02;;;4.46;77.52
82418;BME280;75985;53.734;10.260;2024-02-23T08:06:46;98507.86;;;4.46;77.48
82418;BME280;75985;53.734;10.260;2024-02-23T08:09:52;98507.94;;;4.49;77.45
82418;BME280;75985;53.734;10.260;2024-02-23T08:12:56;98520.58;;;4.61;77.18
82418;BME280;75985;53.734;10.260;2024-02-23T08:16:01;98524.38;;;4.59;76.43
82418;BME280;75985;53.734;10.260;2024-02-23T08:19:06;98528.23;;;4.59;77.09
82418;BME280;75985;53.734;10.260;2024-02-23T08:22:11;98534.31;;;4.65;77.16
82418;BME280;75985;53.734;10.260;2024-02-23T08:25:16;98536.98;;;4.69;77.24
82418;BME280;75985;53.734;10.260;2024-02-23T08:28:21;98534.82;;;4.67;76.96
82418;BME280;75985;53.734;10.260;2024-02-23T08:31:25;98549.69;;;4.63;77.53
82418;BME280;75985;53.734;10.260;2024-02-23T08:34:30;98552.03;;;4.73;77.32
82418;BME280;75985;53.734;10.260;2024-02-23T08:37:34;98554.86;;;4.85;77.17
82418;BME280;75985;53.734;10.260;2024-02-23T08:40:39;98563.42;;;5.07;76.70
82418;BME280;75985;53.734;10.260;2024-02-23T08:43:43;98564.21;;;5.25;75.51
82418;BME280;75985;53.734;10.260;2024-02-23T08:46:48;98564.98;;;5.21;74.38
82418;BME280;75985;53.734;10.260;2024-02-23T08:49:52;98576.09;;;5.20;74.42
82418;BME280;75985;53.734;10.260;2024-02-23T08:52:57;98564.65;;;5.26;73.51
82418;BME280;75985;53.734;10.260;2024-02-23T08:56:01;98575.48;;;5.56;72.04
82418;BME280;75985;53.734;10.260;2024-02-23T08:59:06;98575.39;;;5.73;69.81
82418;BME280;75985;53.734;10.260;2024-02-23T09:02:10;98578.21;;;5.87;70.04
82418;BME280;75985;53.734;10.260;2024-02-23T09:05:15;98577.98;;;5.99;69.75
82418;BME280;75985;53.734;10.260;2024-02-23T09:08:20;98584.61;;;6.10;69.85
82418;BME280;75985;53.734;10.260;2024-02-23T09:11:24;98591.94;;;6.12;69.07
82418;BME280;75985;53.734;10.260;2024-02-23T09:14:29;98602.69;;;6.14;68.64
82418;BME280;75985;53.734;10.260;2024-02-23T09:17:34;98598.86;;;6.16;68.87
82418;BME280;75985;53.734;10.260;2024-02-23T09:20:38;98610.07;;;6.21;68.04
82418;BME280;75985;53.734;10.260;2024-02-23T09:23:43;98611.09;;;6.31;68.56
82418;BME280;75985;53.734;10.260;2024-02-23T09:26:47;98609.02;;;6.35;66.35
82418;BME280;75985;53.734;10.260;2024-02-23T09:29:52;98612.84;;;6.32;67.13
82418;BME280;75985;53.734;10.260;2024-02-23T09:32:56;98624.66;;;6.48;67.73
82418;BME280;75985;53.734;10.260;2024-02-23T09:36:01;98626.98;;;6.61;66.93
82418;BME280;75985;53.734;10.260;2024-02-23T09:39:06;98634.94;;;6.75;65.67
82418;BME280;75985;53.734;10.260;2024-02-23T09:42:10;98636.71;;;6.79;65.81
82418;BME280;75985;53.734;10.260;2024-02-23T09:45:16;98642.73;;;6.81;65.38
82418;BME280;75985;53.734;10.260;2024-02-23T09:48:21;98646.78;;;6.95;65.53
82418;BME280;75985;53.734;10.260;2024-02-23T09:51:26;98655.84;;;6.98;64.25
82418;BME280;75985;53.734;10.260;2024-02-23T09:54:31;98655.44;;;6.99;64.55
82418;BME280;75985;53.734;10.260;2024-02-23T09:57:36;98658.03;;;7.00;64.44
82418;BME280;75985;53.734;10.260;2024-02-23T10:00:41;98671.42;;;7.09;64.00
82418;BME280;75985;53.734;10.260;2024-02-23T10:03:46;98681.16;;;6.99;64.11
82418;BME280;75985;53.734;10.260;2024-02-23T10:06:50;98685.62;;;7.12;64.42
82418;BME280;75985;53.734;10.260;2024-02-23T10:09:55;98685.73;;;7.18;62.96
82418;BME280;75985;53.734;10.260;2024-02-23T10:13:02;98691.55;;;7.37;62.22
82418;BME280;75985;53.734;10.260;2024-02-23T10:16:10;98701.34;;;7.31;62.36
82418;BME280;75985;53.734;10.260;2024-02-23T10:19:14;98695.76;;;7.30;62.54
82418;BME280;75985;53.734;10.260;2024-02-23T10:22:19;98702.84;;;7.16;62.99
82418;BME280;75985;53.734;10.260;2024-02-23T10:25:24;98708.02;;;7.18;62.74
82418;BME280;75985;53.734;10.260;2024-02-23T10:28:29;98718.45;;;7.29;61.61
82418;BME280;75985;53.734;10.260;2024-02-23T10:31:35;98724.62;;;7.40;61.75
82418;BME280;75985;53.734;10.260;2024-02-23T10:34:45;98729.05;;;7.49;61.91
82418;BME280;75985;53.734;10.260;2024-02-23T10:37:53;98728.66;;;7.51;61.74
82418;BME280;75985;53.734;10.260;2024-02-23T10:40:57;98731.86;;;7.36;62.28
82418;BME280;75985;53.734;10.260;2024-02-23T10:44:02;98737.94;;;7.40;61.88
82418;BME280;75985;53.734;10.260;2024-02-23T10:47:07;98736.94;;;7.30;62.34
82418;BME280;75985;53.734;10.260;2024-02-23T10:50:12;98741.44;;;7.16;61.28
82418;BME280;75985;53.734;10.260;2024-02-23T10:53:19;98741.75;;;7.08;61.57
82418;BME280;75985;53.734;10.260;2024-02-23T10:56:24;98751.24;;;7.12;61.34
82418;BME280;75985;53.734;10.260;2024-02-23T10:59:30;98748.23;;;7.11;61.56
82418;BME280;75985;53.734;10.260;2024-02-23T11:02:43;98755.56;;;7.15;61.39
82418;BME280;75985;53.734;10.260;2024-02-23T11:05:42;98746.26;;;7.22;59.92
82418;BME280;75985;53.734;10.260;2024-02-23T11:08:47;98760.00;;;7.24;59.67
82418;BME280;75985;53.734;10.260;2024-02-23T11:11:56;98764.45;;;7.34;59.97
82418;BME280;75985;53.734;10.260;2024-02-23T11:15:01;98769.34;;;7.45;59.49
82418;BME280;75985;53.734;10.260;2024-02-23T11:18:22;98769.90;;;7.56;58.82
82418;BME280;75985;53.734;10.260;2024-02-23T11:21:33;98764.98;;;7.73;59.16
82418;BME280;75985;53.734;10.260;2024-02-23T11:24:34;98758.81;;;7.93;58.41
82418;BME280;75985;53.734;10.260;2024-02-23T11:27:39;98770.68;;;8.15;58.55
82418;BME280;75985;53.734;10.260;2024-02-23T11:30:46;98757.34;;;8.16;57.50
82418;BME280;75985;53.734;10.260;2024-02-23T11:33:56;98768.41;;;8.43;57.84
82418;BME280;75985;53.734;10.260;2024-02-23T11:37:09;98762.14;;;8.59;56.60
82418;BME280;75985;53.734;10.260;2024-02-23T11:40:13;98762.84;;;8.47;55.89
82418;BME280;75985;53.734;10.260;2024-02-23T11:43:18;98764.05;;;8.38;56.50
82418;BME280;75985;53.734;10.260;2024-02-23T11:46:24;98759.34;;;8.40;56.56
82418;BME280;75985;53.734;10.260;2024-02-23T11:49:29;98766.77;;;8.52;56.81
82418;BME280;75985;53.734;10.260;2024-02-23T11:52:35;98765.42;;;8.47;56.36
82418;BME280;75985;53.734;10.260;2024-02-23T11:55:41;98765.41;;;8.44;56.07
82418;BME280;75985;53.734;10.260;2024-02-23T11:58:46;98763.94;;;8.27;56.53
82418;BME280;75985;53.734;10.260;2024-02-23T12:01:51;98766.47;;;8.23;56.75
82418;BME280;75985;53.734;10.260;2024-02-23T12:04:55;98765.67;;;8.29;57.47
82418;BME280;75985;53.734;10.260;2024-02-23T12:08:00;98761.06;;;8.41;56.83
82418;BME280;75985;53.734;10.260;2024-02-23T12:11:05;98756.11;;;8.58;56.39
82418;BME280;75985;53.734;10.260;2024-02-23T12:14:11;98747.88;;;8.98;56.79
82418;BME280;75985;53.734;10.260;2024-02-23T12:17:16;98745.78;;;9.06;54.39
82418;BME280;75985;53.734;10.260;2024-02-23T12:20:22;98756.52;;;9.05;55.56
82418;BME280;75985;53.734;10.260;2024-02-23T12:23:26;98759.62;;;9.16;55.04
82418;BME280;75985;53.734;10.260;2024-02-23T12:26:31;98755.21;;;9.04;55.71
82418;BME280;75985;53.734;10.260;2024-02-23T12:29:35;98753.83;;;8.91;56.11
82418;BME280;75985;53.734;10.260;2024-02-23T12:32:40;98758.06;;;8.83;56.44
82418;BME280;75985;53.734;10.260;2024-02-23T12:35:45;98767.84;;;8.72;55.09
82418;BME280;75985;53.734;10.260;2024-02-23T12:38:50;98778.48;;;8.61;55.82
82418;BME280;75985;53.734;10.260;2024-02-23T12:41:54;98781.23;;;8.39;55.05
82418;BME280;75985;53.734;10.260;2024-02-23T12:45:00;98773.95;;;8.38;55.61
82418;BME280;75985;53.734;10.260;2024-02-23T12:48:05;98782.89;;;8.32;54.87
82418;BME280;75985;53.734;10.260;2024-02-23T12:51:09;98776.31;;;8.19;54.93
82418;BME280;75985;53.734;10.260;2024-02-23T12:54:14;98780.20;;;8.21;55.12
82418;BME280;75985;53.734;10.260;2024-02-23T12:57:20;98777.55;;;8.16;54.17
82418;BME280;75985;53.734;10.260;2024-02-23T13:00:24;98789.20;;;8.19;54.50
82418;BME280;75985;53.734;10.260;2024-02-23T13:03:29;98772.48;;;8.22;55.00
82418;BME280;75985;53.734;10.260;2024-02-23T13:06:33;98785.83;;;8.25;54.41
82418;BME280;75985;53.734;10.260;2024-02-23T13:09:38;98794.47;;;8.30;54.44
82418;BME280;75985;53.734;10.260;2024-02-23T13:12:42;98790.64;;;8.33;53.37
82418;BME280;75985;53.734;10.260;2024-02-23T13:15:48;98801.02;;;8.38;52.79
82418;BME280;75985;53.734;10.260;2024-02-23T13:18:53;98802.27;;;8.35;53.40
82418;BME280;75985;53.734;10.260;2024-02-23T13:21:57;98803.13;;;8.37;53.70
82418;BME280;75985;53.734;10.260;2024-02-23T13:25:04;98798.89;;;8.41;53.31
82418;BME280;75985;53.734;10.260;2024-02-23T13:28:09;98795.54;;;8.48;53.76
82418;BME280;75985;53.734;10.260;2024-02-23T13:31:13;98798.30;;;8.62;53.83
82418;BME280;75985;53.734;10.260;2024-02-23T13:34:19;98788.47;;;8.71;53.05
82418;BME280;75985;53.734;10.260;2024-02-23T13:37:23;98804.78;;;8.68;53.03
82418;BME280;75985;53.734;10.260;2024-02-23T13:40:30;98806.59;;;8.77;53.38
82418;BME280;75985;53.734;10.260;2024-02-23T13:43:36;98812.23;;;8.81;53.91
82418;BME280;75985;53.734;10.260;2024-02-23T13:46:41;98823.82;;;8.80;54.16
82418;BME280;75985;53.734;10.260;2024-02-23T13:49:46;98824.12;;;8.68;53.99
82418;BME280;75985;53.734;10.260;2024-02-23T13:52:50;98839.41;;;8.53;53.93
82418;BME280;75985;53.734;10.260;2024-02-23T13:55:55;98833.16;;;8.32;54.23
82418;BME280;75985;53.734;10.260;2024-02-23T13:59:00;98832.97;;;8.16;54.31
82418;BME280;75985;53.734;10.260;2024-02-23T14:02:04;98825.91;;;8.03;54.97
82418;BME280;75985;53.734;10.260;2024-02-23T14:05:09;98832.23;;;7.93;55.79
82418;BME280;75985;53.734;10.260;2024-02-23T14:08:13;98833.90;;;7.88;56.13
82418;BME280;75985;53.734;10.260;2024-02-23T14:11:18;98831.63;;;7.81;55.65
82418;BME280;75985;53.734;10.260;2024-02-23T14:14:22;98829.81;;;7.73;55.65
82418;BME280;75985;53.734;10.260;2024-02-23T14:17:27;98832.78;;;7.70;55.67
82418;BME280;75985;53.734;10.260;2024-02-23T14:20:31;98834.41;;;7.64;55.76
82418;BME280;75985;53.734;10.260;2024-02-23T14:23:36;98837.83;;;7.63;56.21
82418;BME280;75985;53.734;10.260;2024-02-23T14:26:41;98840.38;;;7.61;56.22
82418;BME280;75985;53.734;10.260;2024-02-23T14:29:46;98832.19;;;7.60;56.12
82418;BME280;75985;53.734;10.260;2024-02-23T14:32:51;98826.75;;;7.68;56.10
82418;BME280;75985;53.734;10.260;2024-02-23T14:35:55;98832.56;;;7.85;55.66
82418;BME280;75985;53.734;10.260;2024-02-23T14:39:00;98828.45;;;7.98;55.06
82418;BME280;75985;53.734;10.260;2024-02-23T14:42:04;98830.78;;;8.14;54.83
82418;BME280;75985;53.734;10.260;2024-02-23T14:45:11;98828.91;;;8.37;54.44
82418;BME280;75985;53.734;10.260;2024-02-23T14:48:16;98817.88;;;8.47;54.49
82418;BME280;75985;53.734;10.260;2024-02-23T14:51:21;98820.83;;;8.42;54.95
82418;BME280;75985;53.734;10.260;2024-02-23T14:54:25;98821.13;;;8.31;55.12
82418;BME280;75985;53.734;10.260;2024-02-23T14:57:30;98825.59;;;8.09;55.69
82418;BME280;75985;53.734;10.260;2024-02-23T15:00:34;98827.45;;;7.88;56.02
82418;BME280;75985;53.734;10.260;2024-02-23T15:03:38;98829.38;;;7.73;56.34
82418;BME280;75985;53.734;10.260;2024-02-23T15:06:43;98824.98;;;7.64;57.14
82418;BME280;75985;53.734;10.260;2024-02-23T15:09:47;98824.77;;;7.52;57.46
82418;BME280;75985;53.734;10.260;2024-02-23T15:12:52;98825.91;;;7.41;57.36
82418;BME280;75985;53.734;10.260;2024-02-23T15:15:56;98840.30;;;7.29;57.46
82418;BME280;75985;53.734;10.260;2024-02-23T15:19:01;98840.69;;;7.26;57.86
82418;BME280;75985;53.734;10.260;2024-02-23T15:22:05;98853.15;;;7.28;58.60
82418;BME280;75985;53.734;10.260;2024-02-23T15:25:11;98843.02;;;7.39;58.20
82418;BME280;75985;53.734;10.260;2024-02-23T15:28:16;98847.48;;;7.49;58.30
82418;BME280;75985;53.734;10.260;2024-02-23T15:31:22;98843.31;;;7.57;57.97
82418;BME280;75985;53.734;10.260;2024-02-23T15:34:27;98854.12;;;7.63;57.91
82418;BME280;75985;53.734;10.260;2024-02-23T15:37:32;98857.55;;;7.62;57.61
82418;BME280;75985;53.734;10.260;2024-02-23T15:40:36;98867.42;;;7.61;58.05
82418;BME280;75985;53.734;10.260;2024-02-23T15:43:41;98865.23;;;7.59;57.94
82418;BME280;75985;53.734;10.260;2024-02-23T15:46:45;98860.49;;;7.57;58.15
82418;BME280;75985;53.734;10.260;2024-02-23T15:49:50;98861.28;;;7.54;58.09
82418;BME280;75985;53.734;10.260;2024-02-23T15:52:55;98867.31;;;7.55;58.20
82418;BME280;75985;53.734;10.260;2024-02-23T15:56:00;98867.72;;;7.53;58.12
82418;BME280;75985;53.734;10.260;2024-02-23T15:59:04;98865.09;;;7.50;58.51
82418;BME280;75985;53.734;10.260;2024-02-23T16:02:11;98861.61;;;7.48;58.45
82418;BME280;75985;53.734;10.260;2024-02-23T16:05:16;98859.92;;;7.48;58.43
82418;BME280;75985;53.734;10.260;2024-02-23T16:08:41;98866.77;;;7.48;58.77
82418;BME280;75985;53.734;10.260;2024-02-23T16:11:46;98862.36;;;7.40;59.10
82418;BME280;75985;53.734;10.260;2024-02-23T16:14:51;98866.87;;;7.27;59.48
82418;BME280;75985;53.734;10.260;2024-02-23T16:17:56;98869.27;;;7.16;60.20
82418;BME280;75985;53.734;10.260;2024-02-23T16:21:01;98878.97;;;7.07;60.56